Time;durP1;ratioP1;P1;durP2;ratioP2;P2;SDS_P1;SDS_P2;PMS_P1;PMS_P2;Temp;Humidity;BMP_temperature;BMP_pressure;BME280_temperature;BME280_humidity;BME280_pressure;Samples;Min_cycle;Max_cycle;Signal;HPM_P1;HPM_P2
2023/04/23 00:00:56;;;;;;;0.85;0.85;;;10.10;99.90;;;;;;5049633;28;20117;-70
2023/04/23 00:03:23;;;;;;;0.98;0.98;;;10.10;99.90;;;;;;5052751;28;20083;-70
2023/04/23 00:05:51;;;;;;;1.63;1.52;;;10.30;99.90;;;;;;5052821;28;20104;-71
2023/04/23 00:08:18;;;;;;;3.65;2.95;;;10.20;99.90;;;;;;5055242;28;20423;-71
2023/04/23 00:10:44;;;;;;;12.75;5.43;;;10.30;99.90;;;;;;5054002;28;20035;-70
2023/04/23 00:13:10;;;;;;;5.32;3.55;;;10.30;99.90;;;;;;5048008;28;20036;-71
2023/04/23 00:15:36;;;;;;;3.20;2.92;;;10.20;99.90;;;;;;5045014;28;20033;-71
2023/04/23 00:18:02;;;;;;;1.75;1.65;;;10.20;99.90;;;;;;5051569;28;20029;-71
2023/04/23 00:20:28;;;;;;;4.75;3.75;;;10.20;99.90;;;;;;5070624;28;20376;-70
2023/04/23 00:22:54;;;;;;;6.90;3.75;;;10.20;99.90;;;;;;5072180;28;20032;-70
2023/04/23 00:25:20;;;;;;;3.53;3.22;;;10.20;99.90;;;;;;5072482;28;20376;-71
2023/04/23 00:27:46;;;;;;;3.33;2.35;;;10.20;99.90;;;;;;5072278;28;20024;-70
2023/04/23 00:30:12;;;;;;;2.90;1.67;;;10.20;99.90;;;;;;5061761;28;20436;-70
2023/04/23 00:32:38;;;;;;;0.73;0.70;;;10.20;99.90;;;;;;5071014;28;20055;-71
2023/04/23 00:35:05;;;;;;;3.65;2.35;;;10.20;99.90;;;;;;5072182;28;20504;-71
2023/04/23 00:37:32;;;;;;;3.22;1.63;;;10.20;99.90;;;;;;5072281;28;20030;-70
2023/04/23 00:39:58;;;;;;;0.70;0.70;;;10.10;99.90;;;;;;5072023;28;20036;-70
2023/04/23 00:42:24;;;;;;;4.85;2.85;;;10.10;99.90;;;;;;5072270;28;20028;-70
2023/04/23 00:44:51;;;;;;;10.35;3.75;;;10.20;99.90;;;;;;5054301;28;20021;-70
2023/04/23 00:47:19;;;;;;;1.45;1.35;;;10.10;99.90;;;;;;5053832;28;20035;-70
2023/04/23 00:49:45;;;;;;;9.15;5.45;;;10.10;99.90;;;;;;5054138;28;20024;-71
2023/04/23 00:52:11;;;;;;;3.53;2.17;;;10.10;99.90;;;;;;5071989;28;20086;-70
2023/04/23 00:54:37;;;;;;;2.75;2.55;;;9.90;99.90;;;;;;5072270;28;20028;-71
2023/04/23 00:57:03;;;;;;;1.38;1.27;;;9.90;99.90;;;;;;5072136;28;20025;-70
2023/04/23 00:59:30;;;;;;;2.92;1.45;;;9.90;99.90;;;;;;5072000;28;20047;-70
2023/04/23 01:01:57;;;;;;;5.00;3.22;;;10.00;99.90;;;;;;5053963;28;20442;-70
2023/04/23 01:04:26;;;;;;;8.20;3.35;;;9.90;99.90;;;;;;5075476;28;20036;-70
2023/04/23 01:06:53;;;;;;;1.48;1.38;;;9.90;99.90;;;;;;5075636;28;20071;-70
2023/04/23 01:09:19;;;;;;;4.45;2.97;;;9.90;99.90;;;;;;5057409;28;20032;-70
2023/04/23 01:11:47;;;;;;;3.25;1.98;;;9.80;99.90;;;;;;5075601;28;20024;-70
2023/04/23 01:14:13;;;;;;;2.53;2.30;;;9.80;99.90;;;;;;5075349;28;20025;-71
2023/04/23 01:16:39;;;;;;;10.13;5.15;;;9.90;99.90;;;;;;5075600;28;20090;-70
2023/04/23 01:19:07;;;;;;;7.05;4.03;;;9.90;99.90;;;;;;5057538;28;20461;-71
2023/04/23 01:21:35;;;;;;;2.45;2.17;;;9.90;99.90;;;;;;5075341;28;20099;-70
2023/04/23 01:24:04;;;;;;;7.45;4.78;;;9.90;99.90;;;;;;5057700;28;20111;-70
2023/04/23 01:26:31;;;;;;;6.13;4.00;;;9.90;99.90;;;;;;5056976;28;20073;-70
2023/04/23 01:28:58;;;;;;;6.03;3.70;;;9.90;99.90;;;;;;5075271;28;20040;-70
2023/04/23 01:31:25;;;;;;;1.95;1.75;;;9.90;99.90;;;;;;5057175;28;20031;-70
2023/04/23 01:33:52;;;;;;;8.45;5.60;;;9.90;99.90;;;;;;5057144;28;20116;-70
2023/04/23 01:36:19;;;;;;;1.30;1.02;;;9.90;99.90;;;;;;5075196;28;20020;-70
2023/04/23 01:38:45;;;;;;;3.05;2.85;;;10.00;99.90;;;;;;5056935;28;20465;-70
2023/04/23 01:41:11;;;;;;;2.45;1.90;;;9.90;99.90;;;;;;5073503;28;20024;-70
2023/04/23 01:43:37;;;;;;;20.73;6.45;;;10.10;99.90;;;;;;5073477;28;20021;-70
2023/04/23 01:46:03;;;;;;;4.28;3.20;;;9.90;99.90;;;;;;5075141;28;20111;-70
2023/04/23 01:48:29;;;;;;;16.40;3.35;;;10.00;99.90;;;;;;5073616;28;20166;-70
2023/04/23 01:50:55;;;;;;;5.43;3.17;;;10.10;99.90;;;;;;5073714;28;20032;-70
2023/04/23 01:53:21;;;;;;;1.25;1.15;;;10.20;99.90;;;;;;5074779;28;20024;-70
2023/04/23 01:55:47;;;;;;;0.77;0.77;;;10.20;99.90;;;;;;5074312;28;20032;-69
2023/04/23 01:58:13;;;;;;;1.42;0.80;;;10.30;99.90;;;;;;5073316;28;20024;-70
2023/04/23 02:00:39;;;;;;;0.52;0.52;;;10.40;99.90;;;;;;5073485;28;20027;-70
2023/04/23 02:03:05;;;;;;;5.13;3.83;;;10.30;99.90;;;;;;5073497;28;20024;-70
2023/04/23 02:05:34;;;;;;;0.30;0.30;;;10.50;99.90;;;;;;5074589;28;20033;-70
2023/04/23 02:08:01;;;;;;;3.28;2.58;;;10.50;99.90;;;;;;5073163;28;20558;-70
2023/04/23 02:10:29;;;;;;;0.10;0.10;;;10.60;99.90;;;;;;5073006;28;20461;-71
2023/04/23 02:12:56;;;;;;;4.43;4.03;;;10.50;99.90;;;;;;5074527;28;20044;-70
2023/04/23 02:15:22;;;;;;;0.40;0.40;;;10.50;99.90;;;;;;5073535;28;20037;-70
2023/04/23 02:17:50;;;;;;;9.20;4.32;;;10.50;99.90;;;;;;5074475;28;20024;-70
2023/04/23 02:20:17;;;;;;;10.75;5.43;;;10.50;99.90;;;;;;5073061;28;20040;-70
2023/04/23 02:22:44;;;;;;;0.03;0.03;;;10.40;99.90;;;;;;5073004;28;20027;-70
2023/04/23 02:25:10;;;;;;;10.52;5.90;;;10.40;99.90;;;;;;5072743;28;20158;-70
2023/04/23 02:27:36;;;;;;;1.77;1.67;;;10.50;99.90;;;;;;5073055;28;20507;-70
2023/04/23 02:30:02;;;;;;;0.63;0.63;;;10.50;99.90;;;;;;5072760;28;20028;-70
2023/04/23 02:32:29;;;;;;;1.13;1.02;;;10.30;99.90;;;;;;5074209;28;20103;-70
2023/04/23 02:34:56;;;;;;;1.17;1.10;;;10.40;99.90;;;;;;5072604;28;20028;-70
2023/04/23 02:37:22;;;;;;;1.55;1.45;;;10.40;99.90;;;;;;5056264;28;20119;-70
2023/04/23 02:39:48;;;;;;;1.55;1.45;;;10.30;99.90;;;;;;5072126;28;20155;-70
2023/04/23 02:42:13;;;;;;;1.10;0.82;;;10.40;99.90;;;;;;5072659;28;20028;-70
2023/04/23 02:44:39;;;;;;;1.85;1.45;;;10.40;99.90;;;;;;5072545;28;20021;-70
2023/04/23 02:47:05;;;;;;;4.47;2.83;;;10.30;99.90;;;;;;5072472;28;20048;-70
2023/04/23 02:49:31;;;;;;;2.67;2.40;;;10.20;99.90;;;;;;5072633;28;20032;-70
2023/04/23 02:51:56;;;;;;;1.25;0.90;;;10.20;99.90;;;;;;5058632;28;20393;-70
2023/04/23 02:54:23;;;;;;;6.28;3.10;;;10.10;99.90;;;;;;5073518;28;20066;-70
2023/04/23 02:56:49;;;;;;;0.20;0.20;;;10.20;99.90;;;;;;5072557;28;20550;-70
2023/04/23 02:59:15;;;;;;;7.32;4.50;;;10.20;99.90;;;;;;5072045;28;20024;-70
2023/04/23 03:01:41;;;;;;;3.17;2.95;;;10.20;99.90;;;;;;5072404;28;20050;-70
2023/04/23 03:04:08;;;;;;;0.85;0.80;;;10.10;99.90;;;;;;5072229;28;20427;-70
2023/04/23 03:06:34;;;;;;;0.30;0.30;;;10.10;99.90;;;;;;5065044;28;20017;-70
2023/04/23 03:09:00;;;;;;;5.28;2.35;;;10.00;99.90;;;;;;5069244;28;20060;-70
2023/04/23 03:11:27;;;;;;;7.03;3.45;;;10.10;99.90;;;;;;5072011;28;20527;-70
2023/04/23 03:13:53;;;;;;;2.75;2.13;;;10.00;99.90;;;;;;5071969;28;20384;-70
2023/04/23 03:16:19;;;;;;;4.50;1.92;;;9.90;99.90;;;;;;5072007;28;20028;-70
2023/04/23 03:18:45;;;;;;;1.50;1.40;;;10.00;99.90;;;;;;5055403;28;20032;-71
2023/04/23 03:21:11;;;;;;;2.05;1.85;;;9.90;99.90;;;;;;5071735;28;20111;-70
2023/04/23 03:23:37;;;;;;;2.05;1.85;;;9.90;99.90;;;;;;5071740;28;20032;-70
2023/04/23 03:26:03;;;;;;;1.75;1.55;;;9.80;99.90;;;;;;5071743;28;20123;-70
2023/04/23 03:28:30;;;;;;;3.97;3.67;;;9.80;99.90;;;;;;5071710;28;20110;-70
2023/04/23 03:30:56;;;;;;;1.58;0.50;;;9.90;99.90;;;;;;5073040;28;20048;-70
2023/04/23 03:33:22;;;;;;;2.78;0.90;;;9.90;99.90;;;;;;5071488;28;20471;-71
2023/04/23 03:35:47;;;;;;;4.88;3.10;;;9.90;99.90;;;;;;5073067;28;20460;-70
2023/04/23 03:38:18;;;;;;;2.03;1.83;;;9.80;99.90;;;;;;5071042;28;20499;-71
2023/04/23 03:40:44;;;;;;;1.55;1.23;;;9.80;99.90;;;;;;5054943;28;20056;-70
2023/04/23 03:43:11;;;;;;;0.50;0.30;;;9.80;99.90;;;;;;5071730;28;20120;-70
2023/04/23 03:45:56;;;;;;;2.20;2.10;;;9.90;99.90;;;;;;5072809;28;20097;-70
2023/04/23 03:48:22;;;;;;;4.00;1.92;;;9.80;99.90;;;;;;5071318;28;20043;-70
2023/04/23 03:50:48;;;;;;;1.63;1.48;;;9.80;99.90;;;;;;5071339;28;20060;-70
2023/04/23 03:53:33;;;;;;;1.23;1.13;;;9.80;99.90;;;;;;5071283;28;20024;-70
2023/04/23 03:56:17;;;;;;;0.10;0.10;;;9.80;99.90;;;;;;5072576;28;20504;-70
2023/04/23 03:58:52;;;;;;;0.30;0.30;;;9.80;99.90;;;;;;5071375;28;20060;-70
2023/04/23 04:01:18;;;;;;;0.40;0.40;;;9.80;99.90;;;;;;5072634;28;20060;-70
2023/04/23 04:03:44;;;;;;;1.98;1.45;;;9.70;99.90;;;;;;5072595;28;20023;-71
2023/04/23 04:06:09;;;;;;;1.90;1.50;;;9.70;99.90;;;;;;5071098;28;20032;-70
2023/04/23 04:08:35;;;;;;;1.65;1.05;;;9.70;99.90;;;;;;5072385;28;20036;-70
2023/04/23 04:11:01;;;;;;;4.10;2.35;;;9.70;99.90;;;;;;5071240;28;20033;-72
2023/04/23 04:13:27;;;;;;;11.38;2.28;;;9.70;99.90;;;;;;5072463;28;20028;-70
2023/04/23 04:15:52;;;;;;;2.58;2.03;;;9.70;99.90;;;;;;5054295;28;20063;-70
2023/04/23 04:18:19;;;;;;;5.55;3.17;;;9.70;99.90;;;;;;5072473;28;20039;-70
2023/04/23 04:20:44;;;;;;;1.90;1.80;;;9.60;99.90;;;;;;5072030;28;20020;-71
2023/04/23 04:23:10;;;;;;;2.33;1.52;;;9.60;99.90;;;;;;5072564;28;20031;-70
2023/04/23 04:25:38;;;;;;;1.55;1.30;;;9.70;99.90;;;;;;5072558;28;20078;-70
2023/04/23 04:28:07;;;;;;;1.90;1.80;;;9.70;99.90;;;;;;5072119;28;20586;-72
2023/04/23 04:30:33;;;;;;;1.40;1.00;;;9.70;99.90;;;;;;5072393;28;20475;-70
2023/04/23 04:33:00;;;;;;;3.08;1.48;;;9.70;99.90;;;;;;5071982;28;20021;-71
2023/04/23 04:35:26;;;;;;;2.47;2.20;;;9.70;99.90;;;;;;5071276;28;20032;-70
2023/04/23 04:37:53;;;;;;;2.17;1.27;;;9.60;99.90;;;;;;5072232;28;20094;-71
2023/04/23 04:40:20;;;;;;;3.75;3.05;;;9.60;99.90;;;;;;5075984;28;20063;-70
2023/04/23 04:42:45;;;;;;;2.95;2.30;;;9.50;99.90;;;;;;5076013;28;20043;-70
2023/04/23 04:45:11;;;;;;;7.60;2.80;;;9.50;99.90;;;;;;5076054;28;20024;-70
2023/04/23 04:47:37;;;;;;;4.47;2.83;;;9.50;99.90;;;;;;5076117;28;20076;-71
2023/04/23 04:50:04;;;;;;;3.58;1.92;;;9.60;99.90;;;;;;5057699;28;20125;-70
2023/04/23 04:52:30;;;;;;;3.17;2.45;;;9.60;99.90;;;;;;5058331;28;20381;-70
2023/04/23 04:54:56;;;;;;;1.45;0.98;;;9.60;99.90;;;;;;5075880;28;20020;-70
2023/04/23 04:57:22;;;;;;;14.25;3.90;;;9.60;99.90;;;;;;5074567;28;20112;-70
2023/04/23 04:59:49;;;;;;;4.05;2.63;;;9.70;99.90;;;;;;5066279;28;20024;-70
2023/04/23 05:02:15;;;;;;;4.93;3.40;;;9.60;99.90;;;;;;5075725;28;20040;-70
2023/04/23 05:04:41;;;;;;;2.83;2.60;;;9.60;99.90;;;;;;5038069;28;20115;-70
2023/04/23 05:07:06;;;;;;;1.83;1.70;;;9.70;99.90;;;;;;5075523;28;20549;-71
2023/04/23 05:09:32;;;;;;;5.45;2.95;;;9.60;99.90;;;;;;5075725;28;20361;-71
2023/04/23 05:11:58;;;;;;;1.42;1.33;;;9.70;99.90;;;;;;5057791;28;20531;-70
2023/04/23 05:14:25;;;;;;;4.53;3.15;;;9.70;99.90;;;;;;5075703;28;20067;-70
2023/04/23 05:16:51;;;;;;;2.95;1.90;;;9.60;99.90;;;;;;5075480;28;20037;-70
2023/04/23 05:19:17;;;;;;;10.15;2.53;;;9.70;99.90;;;;;;5075131;28;20054;-71
2023/04/23 05:21:42;;;;;;;5.38;3.72;;;9.70;99.90;;;;;;5075526;28;20113;-70
2023/04/23 05:24:08;;;;;;;6.50;3.83;;;9.80;99.90;;;;;;5075346;28;20028;-71
2023/04/23 05:26:34;;;;;;;5.20;2.65;;;9.70;99.90;;;;;;5075469;28;20125;-71
2023/04/23 05:29:00;;;;;;;5.38;3.25;;;9.80;99.90;;;;;;5075475;28;20090;-70
2023/04/23 05:31:26;;;;;;;1.67;0.70;;;9.80;99.90;;;;;;5075290;28;20047;-70
2023/04/23 05:33:52;;;;;;;3.30;1.88;;;9.90;99.90;;;;;;5074829;28;20031;-70
2023/04/23 05:36:18;;;;;;;5.57;2.95;;;9.90;99.90;;;;;;5057382;28;20523;-70
2023/04/23 05:38:44;;;;;;;4.93;1.52;;;9.90;99.90;;;;;;5074803;28;20029;-70
2023/04/23 05:41:10;;;;;;;2.03;1.92;;;10.00;99.90;;;;;;5075437;28;20060;-70
2023/04/23 05:43:35;;;;;;;1.13;0.47;;;10.00;99.90;;;;;;5056879;28;20025;-71
2023/04/23 05:46:05;;;;;;;3.72;3.05;;;10.20;99.90;;;;;;5075116;28;20048;-70
2023/04/23 05:48:30;;;;;;;3.25;1.48;;;10.20;99.90;;;;;;5056440;28;20040;-71
2023/04/23 05:50:57;;;;;;;3.72;2.35;;;10.30;99.90;;;;;;5074125;28;20431;-70
2023/04/23 05:53:23;;;;;;;1.15;0.73;;;10.30;99.90;;;;;;5056823;28;20028;-70
2023/04/23 05:55:49;;;;;;;5.95;3.03;;;10.50;99.90;;;;;;5074871;28;20044;-71
2023/04/23 05:58:15;;;;;;;1.13;1.00;;;10.50;99.90;;;;;;5074816;28;20037;-70
2023/04/23 06:00:40;;;;;;;1.63;1.52;;;10.60;99.90;;;;;;5074762;28;20537;-70
2023/04/23 06:03:06;;;;;;;2.15;1.95;;;10.60;99.90;;;;;;5074488;28;20029;-70
2023/04/23 06:05:32;;;;;;;3.88;2.50;;;10.80;99.90;;;;;;5074603;28;20055;-71
2023/04/23 06:07:58;;;;;;;4.53;2.53;;;11.00;99.90;;;;;;5074517;28;20040;-70
2023/04/23 06:10:24;;;;;;;3.63;2.58;;;11.00;99.90;;;;;;5075141;28;20373;-70
2023/04/23 06:12:49;;;;;;;1.17;1.02;;;11.10;99.90;;;;;;5073284;28;20481;-71
2023/04/23 06:15:15;;;;;;;1.30;0.93;;;11.10;99.90;;;;;;5035405;28;20057;-71
2023/04/23 06:17:41;;;;;;;2.35;2.15;;;11.00;99.90;;;;;;5058753;28;20024;-70
2023/04/23 06:20:09;;;;;;;1.33;1.25;;;11.10;99.90;;;;;;5036008;28;20035;-70
2023/04/23 06:22:35;;;;;;;4.88;2.88;;;11.10;99.90;;;;;;5041370;28;20029;-70
2023/04/23 06:25:01;;;;;;;1.55;0.90;;;11.00;99.90;;;;;;5040565;28;20037;-70
2023/04/23 06:27:27;;;;;;;1.75;1.45;;;11.00;99.90;;;;;;5063749;28;20090;-70
2023/04/23 06:29:57;;;;;;;3.95;1.75;;;11.10;99.90;;;;;;5054819;28;20025;-71
2023/04/23 06:32:23;;;;;;;2.30;1.90;;;11.30;99.90;;;;;;5055355;28;20047;-70
2023/04/23 06:34:49;;;;;;;0.22;0.22;;;11.40;99.90;;;;;;5073272;28;20032;-71
2023/04/23 06:37:14;;;;;;;4.57;1.20;;;11.50;99.90;;;;;;5073274;28;20024;-70
2023/04/23 06:39:40;;;;;;;0.38;0.38;;;11.60;99.90;;;;;;5072938;28;20067;-71
2023/04/23 06:42:06;;;;;;;3.75;1.38;;;11.70;99.90;;;;;;5054985;28;20036;-70
2023/04/23 06:44:36;;;;;;;5.97;1.98;;;11.70;99.90;;;;;;5046203;28;20057;-71
2023/04/23 06:47:03;;;;;;;9.18;2.17;;;11.70;99.90;;;;;;5034980;28;20025;-71
2023/04/23 06:49:29;;;;;;;0.20;0.10;;;11.70;99.90;;;;;;5056617;28;20367;-71
2023/04/23 06:51:55;;;;;;;1.10;1.05;;;11.80;99.90;;;;;;5041860;28;20036;-71
2023/04/23 06:54:21;;;;;;;3.80;2.20;;;11.90;99.90;;;;;;5039407;28;20028;-70
2023/04/23 06:56:47;;;;;;;0.75;0.75;;;11.90;99.90;;;;;;5052935;28;20112;-70
2023/04/23 06:59:13;;;;;;;0.43;0.43;;;12.10;99.90;;;;;;5048780;28;20063;-70
2023/04/23 07:01:44;;;;;;;;;;;12.20;99.90;;;;;;5034429;28;20615;-70
2023/04/23 07:04:10;;;;;;;1.88;1.63;;;12.20;99.90;;;;;;5052165;28;20023;-70
2023/04/23 07:06:36;;;;;;;1.48;1.00;;;12.40;99.90;;;;;;5052629;28;20041;-70
2023/04/23 07:09:02;;;;;;;1.52;1.20;;;12.30;99.90;;;;;;5052587;28;20385;-72
2023/04/23 07:11:30;;;;;;;3.97;1.98;;;12.40;99.90;;;;;;5052115;28;20032;-71
2023/04/23 07:13:57;;;;;;;4.97;1.08;;;12.50;99.90;;;;;;5045693;28;21321;-70
2023/04/23 07:16:24;;;;;;;0.00;0.00;;;12.40;99.90;;;;;;5052054;28;20527;-70
2023/04/23 07:18:50;;;;;;;0.17;0.15;;;12.50;99.90;;;;;;5051247;28;20104;-70
2023/04/23 07:21:15;;;;;;;3.08;1.05;;;12.80;99.90;;;;;;5052544;28;20458;-71
2023/04/23 07:23:41;;;;;;;2.95;1.00;;;12.80;99.90;;;;;;5052367;28;20036;-70
2023/04/23 07:26:07;;;;;;;2.25;1.35;;;12.90;99.90;;;;;;5032457;28;20489;-70
2023/04/23 07:28:33;;;;;;;4.85;1.13;;;12.90;99.90;;;;;;5055107;28;20082;-71
2023/04/23 07:30:59;;;;;;;2.60;0.90;;;12.90;99.90;;;;;;5051707;28;20009;-70
2023/04/23 07:33:25;;;;;;;2.03;1.10;;;13.10;99.90;;;;;;5056704;28;20086;-70
2023/04/23 07:35:51;;;;;;;1.10;0.82;;;12.90;99.90;;;;;;5051816;28;20033;-72
2023/04/23 07:38:17;;;;;;;2.58;1.48;;;12.90;99.90;;;;;;5051747;28;20029;-70
2023/04/23 07:40:43;;;;;;;0.20;0.20;;;13.00;99.90;;;;;;5051441;28;20113;-70
2023/04/23 07:43:09;;;;;;;1.42;1.00;;;13.20;99.90;;;;;;5036286;28;20040;-71
2023/04/23 07:45:35;;;;;;;5.95;1.30;;;13.10;99.90;;;;;;5051033;28;20489;-71
2023/04/23 07:48:01;;;;;;;0.65;0.45;;;13.20;99.90;;;;;;5051607;28;20029;-71
2023/04/23 07:50:28;;;;;;;0.50;0.50;;;13.40;99.90;;;;;;5015142;28;20018;-71
2023/04/23 07:52:54;;;;;;;0.25;0.25;;;13.40;99.90;;;;;;5051644;28;20057;-71
2023/04/23 07:55:20;;;;;;;6.82;3.08;;;13.70;99.90;;;;;;5032822;28;20064;-71
2023/04/23 07:57:46;;;;;;;1.77;0.90;;;13.70;99.90;;;;;;5050799;28;20029;-70
2023/04/23 08:00:13;;;;;;;0.10;0.10;;;13.70;99.90;;;;;;5048120;28;20028;-71
2023/04/23 08:02:39;;;;;;;0.80;0.22;;;13.90;99.90;;;;;;5050694;28;20033;-70
2023/04/23 08:05:05;;;;;;;1.33;1.20;;;13.90;99.90;;;;;;5033466;28;20040;-71
2023/04/23 08:07:31;;;;;;;0.80;0.80;;;13.80;99.90;;;;;;5050821;28;20087;-70
2023/04/23 08:10:03;;;;;;;5.15;1.50;;;13.80;99.90;;;;;;5051144;28;20061;-70
2023/04/23 08:12:29;;;;;;;3.00;1.70;;;13.80;99.90;;;;;;5032122;28;20048;-69
2023/04/23 08:14:55;;;;;;;3.17;0.43;;;13.70;99.90;;;;;;5050965;28;20108;-70
2023/04/23 08:17:28;;;;;;;1.75;0.22;;;13.90;99.90;;;;;;5032848;28;20516;-70
2023/04/23 08:19:54;;;;;;;5.57;1.05;;;14.20;99.90;;;;;;5033032;28;20029;-70
2023/04/23 08:22:20;;;;;;;26.25;1.00;;;14.30;99.90;;;;;;5051888;28;20029;-71
2023/04/23 08:24:45;;;;;;;15.10;1.33;;;14.30;99.90;;;;;;5051725;28;20025;-70
2023/04/23 08:27:12;;;;;;;0.57;0.57;;;14.30;99.90;;;;;;5051146;28;20110;-70
2023/04/23 08:29:38;;;;;;;0.70;0.70;;;14.40;99.90;;;;;;5053689;28;20033;-70
2023/04/23 08:32:04;;;;;;;2.33;1.52;;;14.50;99.90;;;;;;5033577;28;20025;-70
2023/04/23 08:34:30;;;;;;;0.75;0.60;;;14.80;99.90;;;;;;5052188;28;20060;-70
2023/04/23 08:36:56;;;;;;;6.15;0.80;;;15.00;99.90;;;;;;5051535;28;20056;-70
2023/04/23 08:39:22;;;;;;;8.48;0.47;;;15.00;99.90;;;;;;5050924;28;20115;-70
2023/04/23 08:41:54;;;;;;;8.07;1.52;;;15.00;99.90;;;;;;5033526;28;20054;-70
2023/04/23 08:44:24;;;;;;;0.40;0.40;;;14.80;99.90;;;;;;5053647;28;20373;-70
2023/04/23 08:46:52;;;;;;;1.50;0.98;;;14.80;99.90;;;;;;5051364;28;20100;-70
2023/04/23 08:49:18;;;;;;;4.40;1.17;;;15.00;99.90;;;;;;5033357;28;20101;-70
2023/04/23 08:51:54;;;;;;;14.20;1.00;;;15.20;99.90;;;;;;5050983;28;20025;-70
2023/04/23 08:54:27;;;;;;;0.15;0.15;;;15.20;99.90;;;;;;5052407;28;20390;-69
2023/04/23 08:56:57;;;;;;;6.03;1.48;;;15.40;99.90;;;;;;5046518;28;20021;-70
2023/04/23 08:59:33;;;;;;;0.95;0.73;;;15.40;99.90;;;;;;5049824;28;20115;-70
2023/04/23 09:02:00;;;;;;;6.13;1.05;;;15.80;99.90;;;;;;5033407;28;20037;-70
2023/04/23 09:04:27;;;;;;;2.05;0.65;;;15.70;99.90;;;;;;5052019;28;20029;-70
2023/04/23 09:06:55;;;;;;;9.20;1.00;;;15.80;99.90;;;;;;5048923;28;20013;-70
2023/04/23 09:09:22;;;;;;;2.67;1.23;;;15.90;99.90;;;;;;5051271;28;20032;-70
2023/04/23 09:11:49;;;;;;;5.18;1.15;;;15.80;99.90;;;;;;5051083;28;20029;-70
2023/04/23 09:14:15;;;;;;;8.68;1.17;;;16.10;99.90;;;;;;5051439;28;20032;-70
2023/04/23 09:16:41;;;;;;;3.63;1.27;;;15.90;99.90;;;;;;5051569;28;20046;-70
2023/04/23 09:19:10;;;;;;;9.18;0.82;;;15.90;99.90;;;;;;5051472;28;20020;-70
2023/04/23 09:21:39;;;;;;;3.80;1.15;;;15.70;99.90;;;;;;5013907;28;20037;-70
2023/04/23 09:24:05;;;;;;;3.35;0.40;;;15.80;99.90;;;;;;5051043;28;20669;-70
2023/04/23 09:26:31;;;;;;;1.70;0.70;;;15.90;99.90;;;;;;5056401;28;20409;-70
2023/04/23 09:28:57;;;;;;;4.47;2.22;;;15.60;99.90;;;;;;5058031;28;20029;-70
2023/04/23 09:31:23;;;;;;;0.28;0.28;;;15.80;99.90;;;;;;5038468;28;20385;-70
2023/04/23 09:33:53;;;;;;;3.25;1.05;;;15.90;99.90;;;;;;5058439;28;20136;-69
2023/04/23 09:36:22;;;;;;;1.13;0.77;;;15.80;99.90;;;;;;5050832;28;20032;-70
2023/04/23 09:38:49;;;;;;;2.72;0.63;;;15.80;99.90;;;;;;5055872;28;20029;-69
2023/04/23 09:41:26;;;;;;;3.20;0.50;;;15.80;99.90;;;;;;5058179;28;20027;-70
2023/04/23 09:43:56;;;;;;;6.75;1.23;;;15.90;99.90;;;;;;5061067;28;20423;-70
2023/04/23 09:46:35;;;;;;;0.10;0.10;;;15.80;99.90;;;;;;5039484;28;20033;-70
2023/04/23 09:49:09;;;;;;;4.80;0.75;;;15.80;99.90;;;;;;5024242;28;20036;-70
2023/04/23 09:51:40;;;;;;;0.25;0.08;;;15.90;99.90;;;;;;5038653;28;20029;-70
2023/04/23 09:54:24;;;;;;;8.33;1.80;;;15.90;99.90;;;;;;5057553;28;20016;-69
2023/04/23 09:56:56;;;;;;;4.70;1.25;;;15.70;99.90;;;;;;5055197;28;20071;-71
2023/04/23 09:59:23;;;;;;;;;;;15.70;99.90;;;;;;5060719;28;20025;-70
2023/04/23 10:01:49;;;;;;;1.58;0.57;;;15.80;99.90;;;;;;5054980;28;20391;-70
2023/04/23 10:04:22;;;;;;;7.40;0.63;;;15.80;99.90;;;;;;5054360;28;20531;-70
2023/04/23 10:06:54;;;;;;;3.78;0.98;;;15.70;99.90;;;;;;5033960;28;20556;-70
2023/04/23 10:09:23;;;;;;;1.17;1.17;;;15.80;99.90;;;;;;5053633;28;20032;-70
2023/04/23 10:11:53;;;;;;;1.02;0.47;;;15.90;99.90;;;;;;5053819;28;20466;-70
2023/04/23 10:14:22;;;;;;;5.10;1.30;;;16.00;99.90;;;;;;5034926;28;20028;-70
2023/04/23 10:17:07;;;;;;;1.17;0.45;;;15.70;99.90;;;;;;5054625;28;20548;-70
2023/04/23 10:19:33;;;;;;;0.98;0.50;;;15.70;99.90;;;;;;5054126;28;20029;-70
2023/04/23 10:22:04;;;;;;;1.40;0.65;;;15.60;99.90;;;;;;5033155;28;20045;-71
2023/04/23 10:24:36;;;;;;;6.00;1.07;;;15.40;99.90;;;;;;5051622;28;20032;-70
2023/04/23 10:27:04;;;;;;;2.03;0.80;;;15.50;99.90;;;;;;5060889;28;20491;-71
2023/04/23 10:29:34;;;;;;;1.55;0.77;;;15.60;99.90;;;;;;5061887;28;20033;-71
2023/04/23 10:32:02;;;;;;;0.40;0.40;;;15.80;99.90;;;;;;5026926;28;20108;-71
2023/04/23 10:34:32;;;;;;;5.32;1.10;;;15.60;99.90;;;;;;5052924;28;20385;-71
2023/04/23 10:37:00;;;;;;;0.70;0.43;;;15.70;99.90;;;;;;5062518;28;20045;-71
2023/04/23 10:39:35;;;;;;;1.25;0.75;;;16.00;99.90;;;;;;5061290;28;20443;-70
2023/04/23 10:42:02;;;;;;;0.65;0.65;;;15.70;99.90;;;;;;5035906;28;20386;-71
2023/04/23 10:44:33;;;;;;;1.77;1.35;;;16.00;99.90;;;;;;5035251;28;20029;-72
2023/04/23 10:47:02;;;;;;;8.80;0.68;;;16.10;99.90;;;;;;5059956;28;20037;-71
2023/04/23 10:49:32;;;;;;;0.60;0.30;;;16.20;99.90;;;;;;5038824;28;20023;-71
2023/04/23 10:52:03;;;;;;;4.43;1.75;;;16.10;99.90;;;;;;5039592;28;20045;-71
2023/04/23 10:54:33;;;;;;;3.42;1.65;;;15.80;99.90;;;;;;5054494;28;20100;-71
2023/04/23 10:57:02;;;;;;;4.40;0.95;;;15.90;99.90;;;;;;5057248;28;20382;-72
2023/04/23 10:59:30;;;;;;;2.00;0.50;;;15.90;99.90;;;;;;5055072;28;20027;-71
2023/04/23 11:02:00;;;;;;;1.13;0.70;;;16.00;99.90;;;;;;5064899;28;20024;-70
2023/04/23 11:04:28;;;;;;;0.80;0.55;;;15.70;99.90;;;;;;5055983;28;20393;-71
2023/04/23 11:07:03;;;;;;;2.72;0.85;;;15.60;99.90;;;;;;5053377;28;20083;-71
2023/04/23 11:09:37;;;;;;;0.70;0.63;;;15.70;99.90;;;;;;5081318;28;20071;-71
2023/04/23 11:12:09;;;;;;;2.72;0.98;;;15.70;99.90;;;;;;5044514;28;20025;-70
2023/04/23 11:14:55;;;;;;;;;;;15.70;99.90;;;;;;5057937;28;20446;-71
2023/04/23 11:17:23;;;;;;;2.28;0.60;;;15.70;99.90;;;;;;5055532;28;19954;-71
2023/04/23 11:20:12;;;;;;;5.40;1.33;;;15.70;99.90;;;;;;5030946;28;20029;-71
2023/04/23 11:22:48;;;;;;;0.43;0.43;;;15.70;99.90;;;;;;5057157;28;20079;-71
2023/04/23 11:25:20;;;;;;;1.38;0.88;;;15.60;99.90;;;;;;5056131;28;20064;-71
2023/04/23 11:27:47;;;;;;;1.98;0.38;;;15.60;99.90;;;;;;5068428;28;20093;-70
2023/04/23 11:30:17;;;;;;;6.85;0.50;;;15.60;99.90;;;;;;5056444;28;20111;-70
2023/04/23 11:32:45;;;;;;;2.25;0.52;;;15.50;99.90;;;;;;5053273;28;20044;-69
2023/04/23 11:35:16;;;;;;;3.13;0.80;;;15.50;99.90;;;;;;5042366;28;20036;-71
2023/04/23 11:37:44;;;;;;;2.05;0.73;;;15.30;99.90;;;;;;5049710;28;20423;-70
2023/04/23 11:40:18;;;;;;;1.02;0.45;;;15.20;99.90;;;;;;5051059;28;20032;-70
2023/04/23 11:42:48;;;;;;;0.25;0.25;;;15.20;99.90;;;;;;5054499;28;20025;-70
2023/04/23 11:45:21;;;;;;;2.60;0.43;;;15.40;99.90;;;;;;5052456;28;20029;-70
2023/04/23 11:47:54;;;;;;;0.13;0.13;;;15.70;99.90;;;;;;5054425;28;20120;-70
2023/04/23 11:50:26;;;;;;;4.60;0.47;;;15.60;99.90;;;;;;5058267;28;20120;-70
2023/04/23 11:52:52;;;;;;;0.73;0.60;;;15.80;99.90;;;;;;5056560;28;20028;-70
2023/04/23 11:55:18;;;;;;;3.17;0.47;;;15.90;99.90;;;;;;5054465;28;20052;-69
2023/04/23 11:57:46;;;;;;;11.07;0.90;;;15.60;99.90;;;;;;5057369;28;20484;-71
2023/04/23 12:00:23;;;;;;;1.23;1.10;;;15.60;99.90;;;;;;5063637;28;20024;-70
2023/04/23 12:03:10;;;;;;;11.73;1.13;;;15.40;99.90;;;;;;5051198;28;20552;-69
2023/04/23 12:05:41;;;;;;;0.60;0.45;;;15.10;99.90;;;;;;5056123;28;20384;-70
2023/04/23 12:08:18;;;;;;;1.48;0.80;;;15.20;99.90;;;;;;5059430;28;20365;-70
2023/04/23 12:10:51;;;;;;;1.67;1.50;;;15.10;99.90;;;;;;5065191;28;20021;-70
2023/04/23 12:13:27;;;;;;;26.15;1.13;;;15.10;99.90;;;;;;5058241;28;20112;-70
2023/04/23 12:15:55;;;;;;;9.77;0.77;;;15.40;99.90;;;;;;5056552;28;20052;-70
2023/04/23 12:18:30;;;;;;;0.47;0.47;;;15.40;99.90;;;;;;5051718;28;20025;-70
2023/04/23 12:21:07;;;;;;;5.03;0.68;;;15.30;99.90;;;;;;5063485;28;20036;-70
2023/04/23 12:23:35;;;;;;;0.82;0.50;;;15.20;99.90;;;;;;5064205;28;20436;-70
2023/04/23 12:26:05;;;;;;;1.02;0.80;;;15.20;99.90;;;;;;5054796;28;20021;-70
2023/04/23 12:28:31;;;;;;;2.30;0.50;;;15.10;99.90;;;;;;5053727;28;20056;-70
2023/04/23 12:31:01;;;;;;;1.13;0.68;;;15.10;99.90;;;;;;5047704;28;20025;-70
2023/04/23 12:33:30;;;;;;;2.20;1.35;;;14.90;99.90;;;;;;5049373;28;20025;-70
2023/04/23 12:35:57;;;;;;;10.52;1.02;;;14.90;99.90;;;;;;5050923;28;20021;-70
2023/04/23 12:38:25;;;;;;;7.18;0.30;;;14.70;99.90;;;;;;5049719;28;20033;-72
2023/04/23 12:40:52;;;;;;;1.88;0.45;;;14.70;99.90;;;;;;5052083;28;20040;-72
2023/04/23 12:43:18;;;;;;;0.10;0.10;;;14.40;99.90;;;;;;5051792;28;20023;-73
2023/04/23 12:45:44;;;;;;;13.73;1.10;;;14.60;99.90;;;;;;5052000;28;20033;-72
2023/04/23 12:48:11;;;;;;;0.28;0.28;;;14.80;99.90;;;;;;5051784;28;20033;-72
2023/04/23 12:50:37;;;;;;;0.40;0.40;;;14.70;99.90;;;;;;5052177;28;20032;-72
2023/04/23 12:53:03;;;;;;;3.97;1.13;;;14.50;99.90;;;;;;5034295;28;20036;-72